KMJX/MJX METAR and TAF weather

Enter ICAO airport designator
Station Type Date Time Source
KMJX METAR 2020/02/19 13:56 UTC NOAA

KMJX 191356Z AUTO 30008KT 10SM FEW110 06/M01 A3024 RMK AO2 SLP243 T00611011


Station Type Date Time Source
KMJX Decoded METAR 2020/02/19 13:56 UTC NOAA

Station name not available
Feb 19, 2020 - 08:56 AM EST / 2020.02.19 1356 UTC
Wind: from the WNW (300 degrees) at 9 MPH (8 KT):0
Visibility: 10 mile(s):0
Sky conditions: mostly clear
Temperature: 43.0 F (6.1 C)
Dew Point: 30.0 F (-1.1 C)
Relative Humidity: 59%
Pressure (altimeter): 30.24 in. Hg (1024 hPa)
ob: KMJX 191356Z AUTO 30008KT 10SM FEW110 06/M01 A3024 RMK AO2 SLP243 T00611011
cycle: 14

Station Type Date Time Source
KMJX TAF UTC NOAA

Error!

Example: see airport list